Time;durP1;ratioP1;P1;durP2;ratioP2;P2;SDS_P1;SDS_P2;PMS_P1;PMS_P2;Temp;Humidity;BMP_temperature;BMP_pressure;BME280_temperature;BME280_humidity;BME280_pressure;Samples;Min_cycle;Max_cycle;Signal;HPM_P1;HPM_P2
2024/04/14 00:00:55;;;;;;;4.53;1.60;;;16.80;99.90;;;;;;5329678;26;20033;-65
2024/04/14 00:03:21;;;;;;;5.60;1.90;;;16.90;99.90;;;;;;5333818;26;20005;-67
2024/04/14 00:05:48;;;;;;;6.47;1.92;;;17.00;99.90;;;;;;5334477;26;20446;-66
2024/04/14 00:08:15;;;;;;;6.57;1.95;;;17.10;99.90;;;;;;5334783;26;20005;-64
2024/04/14 00:10:41;;;;;;;7.22;1.92;;;17.10;99.90;;;;;;5330072;26;20019;-64
2024/04/14 00:13:07;;;;;;;8.88;2.20;;;17.00;99.90;;;;;;5331923;26;19997;-65
2024/04/14 00:15:34;;;;;;;10.30;2.28;;;17.00;99.90;;;;;;5336136;26;19993;-64
2024/04/14 00:18:00;;;;;;;6.00;1.65;;;16.90;99.90;;;;;;5337751;26;20072;-65
2024/04/14 00:20:26;;;;;;;5.93;1.80;;;16.80;99.90;;;;;;5340019;26;20000;-64
2024/04/14 00:22:52;;;;;;;7.38;2.03;;;16.80;99.90;;;;;;5334188;26;20016;-65
2024/04/14 00:25:18;;;;;;;6.05;2.00;;;16.80;99.90;;;;;;5336590;26;20008;-64
2024/04/14 00:27:44;;;;;;;8.70;1.95;;;16.60;99.90;;;;;;5331741;26;19997;-64
2024/04/14 00:30:11;;;;;;;6.95;1.85;;;16.60;99.90;;;;;;5336607;26;20020;-64
2024/04/14 00:32:37;;;;;;;7.90;2.03;;;16.60;99.90;;;;;;5334702;26;20340;-64
2024/04/14 00:35:03;;;;;;;9.32;2.10;;;16.50;99.90;;;;;;5333073;26;20012;-64
2024/04/14 00:37:29;;;;;;;4.95;1.83;;;16.50;99.90;;;;;;5332342;26;19997;-65
2024/04/14 00:39:55;;;;;;;6.20;1.88;;;16.50;99.90;;;;;;5330092;26;20017;-65
2024/04/14 00:42:20;;;;;;;7.28;1.90;;;16.40;99.90;;;;;;5334452;26;20012;-64
2024/04/14 00:44:47;;;;;;;4.95;1.80;;;16.40;99.90;;;;;;5333607;26;20376;-64
2024/04/14 00:47:13;;;;;;;7.93;2.00;;;16.40;99.90;;;;;;5333137;26;19997;-64
2024/04/14 00:49:40;;;;;;;7.32;1.70;;;16.30;99.90;;;;;;5301358;26;20005;-64
2024/04/14 00:52:09;;;;;;;6.20;1.88;;;16.30;99.90;;;;;;5332810;26;19997;-64
2024/04/14 00:54:36;;;;;;;11.20;2.35;;;16.30;99.90;;;;;;5333094;26;20020;-64
2024/04/14 00:57:06;;;;;;;6.13;1.85;;;16.20;99.90;;;;;;5332503;26;19997;-65
2024/04/14 00:59:33;;;;;;;6.80;2.13;;;16.30;99.90;;;;;;5333412;26;20013;-64
2024/04/14 01:01:58;;;;;;;10.90;2.20;;;16.30;99.90;;;;;;5330751;26;20025;-64
2024/04/14 01:04:24;;;;;;;10.00;2.40;;;16.20;99.90;;;;;;5335405;26;20005;-64
2024/04/14 01:06:50;;;;;;;7.80;2.40;;;16.20;99.90;;;;;;5334948;26;20013;-64
2024/04/14 01:09:17;;;;;;;7.13;2.10;;;16.20;99.90;;;;;;5306381;26;20041;-64
2024/04/14 01:11:43;;;;;;;7.88;2.38;;;16.20;99.90;;;;;;5304287;26;20085;-64
2024/04/14 01:14:10;;;;;;;7.60;1.80;;;16.20;99.90;;;;;;5334380;26;20423;-64
2024/04/14 01:16:36;;;;;;;9.80;2.38;;;16.10;99.90;;;;;;5333684;26;20025;-64
2024/04/14 01:19:06;;;;;;;10.35;2.50;;;16.10;99.90;;;;;;5331726;26;20016;-65
2024/04/14 01:21:33;;;;;;;8.40;2.80;;;16.10;99.90;;;;;;5328820;26;19997;-64
2024/04/14 01:23:59;;;;;;;6.05;2.60;;;16.00;99.90;;;;;;5330901;26;21689;-64
2024/04/14 01:26:25;;;;;;;6.93;2.10;;;16.00;99.90;;;;;;5331179;26;20004;-65
2024/04/14 01:28:51;;;;;;;7.38;2.67;;;16.00;99.90;;;;;;5336335;26;20037;-64
2024/04/14 01:31:17;;;;;;;9.30;2.85;;;16.00;99.90;;;;;;5336076;26;20009;-64
2024/04/14 01:33:45;;;;;;;10.30;2.92;;;15.90;99.90;;;;;;5326572;26;20037;-64
2024/04/14 01:36:11;;;;;;;9.75;2.72;;;15.90;99.90;;;;;;5308805;26;20005;-64
2024/04/14 01:38:37;;;;;;;10.43;2.10;;;15.90;99.90;;;;;;5334623;26;20357;-64
2024/04/14 01:41:03;;;;;;;7.88;2.25;;;15.90;99.90;;;;;;5332200;26;19997;-64
2024/04/14 01:43:29;;;;;;;9.63;2.13;;;15.80;99.90;;;;;;5305337;26;20009;-64
2024/04/14 01:45:55;;;;;;;7.80;2.10;;;15.70;99.90;;;;;;5329465;26;20005;-64
2024/04/14 01:48:21;;;;;;;6.13;1.70;;;15.70;99.90;;;;;;5336349;26;20016;-64
2024/04/14 01:50:49;;;;;;;6.78;1.95;;;15.70;99.90;;;;;;5333582;26;20012;-64
2024/04/14 01:53:16;;;;;;;8.60;2.13;;;15.70;99.90;;;;;;5333432;26;20360;-64
2024/04/14 01:55:46;;;;;;;8.45;1.50;;;15.60;99.90;;;;;;5331570;26;20012;-64
2024/04/14 01:58:12;;;;;;;5.60;1.30;;;15.60;99.90;;;;;;5301786;26;20457;-64
2024/04/14 02:00:38;;;;;;;4.55;1.23;;;15.50;99.90;;;;;;5334322;26;20016;-64
2024/04/14 02:03:04;;;;;;;8.32;1.40;;;15.40;99.90;;;;;;5330867;26;20345;-64
2024/04/14 02:05:30;;;;;;;6.40;1.50;;;15.30;99.90;;;;;;5338558;26;20063;-64
2024/04/14 02:07:55;;;;;;;6.43;1.10;;;15.20;99.90;;;;;;5336903;26;19997;-64
2024/04/14 02:10:22;;;;;;;7.60;1.75;;;15.10;99.90;;;;;;5340166;26;20004;-64
2024/04/14 02:12:48;;;;;;;8.65;1.65;;;15.00;99.90;;;;;;5331008;26;20342;-64
2024/04/14 02:15:13;;;;;;;5.70;1.38;;;15.00;99.90;;;;;;5332894;26;20019;-65
2024/04/14 02:17:40;;;;;;;8.73;1.48;;;14.90;99.90;;;;;;5336312;26;20036;-65
2024/04/14 02:20:06;;;;;;;6.68;1.90;;;14.90;99.90;;;;;;5341220;26;20061;-64
2024/04/14 02:22:32;;;;;;;6.10;1.48;;;14.80;99.90;;;;;;5340407;26;20009;-64
2024/04/14 02:24:58;;;;;;;8.85;1.65;;;14.70;99.90;;;;;;5339073;26;20005;-63
2024/04/14 02:27:23;;;;;;;7.32;1.52;;;14.60;99.90;;;;;;5334447;26;20016;-64
2024/04/14 02:29:49;;;;;;;6.63;1.55;;;14.60;99.90;;;;;;5332178;26;20611;-64
2024/04/14 02:32:15;;;;;;;7.43;1.30;;;14.60;99.90;;;;;;5334243;26;20000;-64
2024/04/14 02:34:41;;;;;;;7.47;1.50;;;14.60;99.90;;;;;;5336078;26;20001;-64
2024/04/14 02:37:07;;;;;;;5.97;1.35;;;14.50;99.90;;;;;;5336739;26;20001;-64
2024/04/14 02:39:33;;;;;;;8.73;1.60;;;14.50;99.90;;;;;;5335874;26;20499;-64
2024/04/14 02:41:59;;;;;;;7.05;1.40;;;14.50;99.90;;;;;;5335827;26;20017;-64
2024/04/14 02:44:25;;;;;;;6.93;1.20;;;14.50;99.90;;;;;;5334594;26;20017;-64
2024/04/14 02:46:51;;;;;;;9.98;1.52;;;14.50;99.90;;;;;;5336544;26;21877;-63
2024/04/14 02:49:17;;;;;;;6.75;1.20;;;14.50;99.90;;;;;;5333526;26;20005;-64
2024/04/14 02:51:43;;;;;;;5.95;1.30;;;14.40;99.90;;;;;;5330991;26;20005;-64
2024/04/14 02:54:09;;;;;;;7.15;1.40;;;14.40;99.90;;;;;;5334582;26;20044;-64
2024/04/14 02:56:35;;;;;;;6.25;1.55;;;14.40;99.90;;;;;;5334338;26;20469;-64
2024/04/14 02:59:01;;;;;;;8.65;1.50;;;14.40;99.90;;;;;;5332196;26;20023;-64
2024/04/14 03:01:27;;;;;;;8.13;1.50;;;14.40;99.90;;;;;;5334427;26;20001;-64
2024/04/14 03:03:53;;;;;;;9.85;1.13;;;14.40;99.90;;;;;;5302559;26;20015;-63
2024/04/14 03:06:19;;;;;;;6.38;1.20;;;14.40;99.90;;;;;;5336396;26;20005;-64
2024/04/14 03:08:44;;;;;;;5.93;1.20;;;14.40;99.90;;;;;;5332567;26;20469;-64
2024/04/14 03:11:10;;;;;;;8.45;1.55;;;14.30;99.90;;;;;;5336498;26;20479;-64
2024/04/14 03:13:36;;;;;;;6.07;1.20;;;14.20;99.90;;;;;;5306755;26;20001;-64
2024/04/14 03:16:03;;;;;;;6.60;1.25;;;14.10;99.90;;;;;;5333415;26;20001;-64
2024/04/14 03:18:29;;;;;;;10.20;1.50;;;14.00;99.90;;;;;;5336570;26;20005;-64
2024/04/14 03:21:00;;;;;;;10.35;1.88;;;14.00;99.90;;;;;;5333822;26;20019;-64
2024/04/14 03:23:26;;;;;;;;;;;14.00;99.90;;;;;;5335975;26;20001;-64
2024/04/14 03:25:53;;;;;;;5.93;1.27;;;14.00;99.90;;;;;;5334428;26;19937;-65
2024/04/14 03:28:25;;;;;;;7.43;1.30;;;14.00;99.90;;;;;;5335527;26;20719;-64
2024/04/14 03:30:52;;;;;;;6.50;1.30;;;13.90;99.90;;;;;;5335462;26;20504;-63
2024/04/14 03:33:18;;;;;;;4.82;1.10;;;13.90;99.90;;;;;;5335530;26;20012;-64
2024/04/14 03:35:45;;;;;;;8.90;1.30;;;13.90;99.90;;;;;;5331757;26;20005;-64
2024/04/14 03:38:11;;;;;;;8.68;1.33;;;13.80;99.90;;;;;;5335104;26;20009;-64
2024/04/14 03:40:37;;;;;;;9.70;1.40;;;13.80;99.90;;;;;;5335914;26;20001;-64
2024/04/14 03:43:03;;;;;;;8.50;1.50;;;13.70;99.90;;;;;;5333167;26;20009;-64
2024/04/14 03:45:29;;;;;;;8.30;1.50;;;13.70;99.90;;;;;;5336496;26;20342;-64
2024/04/14 03:47:55;;;;;;;6.57;1.38;;;13.60;99.90;;;;;;5332284;26;20012;-64
2024/04/14 03:50:21;;;;;;;7.68;1.60;;;13.60;99.90;;;;;;5333739;26;20479;-64
2024/04/14 03:52:47;;;;;;;7.72;1.50;;;13.60;99.90;;;;;;5329108;26;20015;-64
2024/04/14 03:55:14;;;;;;;7.80;1.27;;;13.60;99.90;;;;;;5332756;26;20349;-64
2024/04/14 03:57:40;;;;;;;7.10;1.58;;;13.50;99.90;;;;;;5334014;26;20041;-64
2024/04/14 04:00:06;;;;;;;6.53;1.10;;;13.50;99.90;;;;;;5336004;26;20391;-64
2024/04/14 04:02:40;;;;;;;9.77;1.67;;;13.50;99.90;;;;;;5333401;26;20112;-63
2024/04/14 04:05:08;;;;;;;10.02;1.55;;;13.60;99.90;;;;;;5330138;26;20004;-63
2024/04/14 04:07:36;;;;;;;11.98;1.60;;;13.60;99.90;;;;;;5326572;26;20652;-64
2024/04/14 04:10:02;;;;;;;7.10;1.42;;;13.50;99.90;;;;;;5307258;26;20008;-63
2024/04/14 04:12:28;;;;;;;9.70;1.65;;;13.50;99.90;;;;;;5335408;26;20005;-64
2024/04/14 04:14:54;;;;;;;7.60;1.35;;;13.40;99.90;;;;;;5291273;26;20145;-64
2024/04/14 04:17:20;;;;;;;7.68;1.70;;;13.40;99.90;;;;;;5334543;26;20001;-64
2024/04/14 04:19:46;;;;;;;10.30;1.83;;;13.30;99.90;;;;;;5337273;26;20005;-64
2024/04/14 04:22:12;;;;;;;7.38;1.40;;;13.30;99.90;;;;;;5335005;26;20476;-63
2024/04/14 04:24:37;;;;;;;9.32;1.65;;;13.20;99.90;;;;;;5334655;26;20016;-64
2024/04/14 04:27:04;;;;;;;9.90;1.33;;;13.10;99.90;;;;;;5334066;26;20017;-63
2024/04/14 04:29:29;;;;;;;9.60;1.65;;;13.00;99.90;;;;;;5334284;26;20016;-64
2024/04/14 04:31:55;;;;;;;6.57;1.80;;;13.10;99.90;;;;;;5332973;26;20009;-63
2024/04/14 04:34:22;;;;;;;11.70;1.50;;;13.00;99.90;;;;;;5336475;26;20029;-64
2024/04/14 04:36:48;;;;;;;12.25;1.80;;;13.00;99.90;;;;;;5334064;26;20457;-63
2024/04/14 04:39:15;;;;;;;9.02;1.67;;;13.10;99.90;;;;;;5335278;26;20029;-64
2024/04/14 04:41:41;;;;;;;6.78;1.48;;;13.00;99.90;;;;;;5335144;26;20015;-63
2024/04/14 04:44:07;;;;;;;13.55;2.00;;;13.00;99.90;;;;;;5330591;26;20009;-63
2024/04/14 04:46:33;;;;;;;10.43;1.48;;;13.00;99.90;;;;;;5333096;26;20011;-64
2024/04/14 04:48:59;;;;;;;12.00;1.90;;;12.90;99.90;;;;;;5333969;26;19997;-64
2024/04/14 04:51:27;;;;;;;10.63;1.75;;;13.00;99.90;;;;;;5336641;26;20016;-64
2024/04/14 04:53:53;;;;;;;10.88;1.73;;;12.90;99.90;;;;;;5334357;26;20023;-64
2024/04/14 04:56:19;;;;;;;11.88;1.80;;;12.90;99.90;;;;;;5335492;26;20000;-64
2024/04/14 04:58:45;;;;;;;9.88;1.80;;;12.80;99.90;;;;;;5326863;26;20001;-64
2024/04/14 05:01:24;;;;;;;8.20;1.73;;;12.80;99.90;;;;;;5427748;26;20338;-63
2024/04/14 05:03:50;;;;;;;10.48;1.70;;;12.80;99.90;;;;;;5425230;26;19999;-63
2024/04/14 05:06:16;;;;;;;12.07;1.80;;;12.90;99.90;;;;;;5423826;26;20490;-65
2024/04/14 05:08:42;;;;;;;15.70;2.00;;;12.90;99.90;;;;;;5444273;26;19998;-64
2024/04/14 05:11:08;;;;;;;11.60;1.63;;;12.90;99.90;;;;;;5437640;26;20007;-65
2024/04/14 05:13:34;;;;;;;10.20;1.67;;;12.80;99.90;;;;;;5437056;26;20067;-65
2024/04/14 05:16:02;;;;;;;12.13;2.00;;;12.80;99.90;;;;;;5435527;26;20002;-64
2024/04/14 05:18:29;;;;;;;11.40;2.05;;;12.70;99.90;;;;;;5417407;26;22350;-65
2024/04/14 05:20:54;;;;;;;10.13;1.58;;;12.70;99.90;;;;;;5414268;26;20000;-64
2024/04/14 05:23:20;;;;;;;16.17;2.15;;;12.60;99.90;;;;;;5410731;26;20088;-65
2024/04/14 05:25:50;;;;;;;11.48;2.05;;;12.60;99.90;;;;;;5412527;26;20018;-65
2024/04/14 05:28:16;;;;;;;10.98;1.75;;;12.60;99.90;;;;;;5425901;26;20060;-63
2024/04/14 05:30:42;;;;;;;11.93;1.63;;;12.50;99.90;;;;;;5447021;26;19999;-65
2024/04/14 05:33:08;;;;;;;12.52;2.15;;;12.50;99.90;;;;;;5438542;26;19999;-63
2024/04/14 05:35:34;;;;;;;13.30;2.20;;;12.50;99.90;;;;;;5434608;26;20009;-63
2024/04/14 05:38:00;;;;;;;8.38;1.92;;;12.60;99.90;;;;;;5409605;26;20015;-63
2024/04/14 05:40:26;;;;;;;11.52;2.13;;;12.50;99.90;;;;;;5414490;26;20014;-63
2024/04/14 05:42:54;;;;;;;8.35;1.60;;;12.60;99.90;;;;;;5408798;26;20004;-63
2024/04/14 05:45:25;;;;;;;7.75;1.67;;;12.50;99.90;;;;;;5417429;26;19999;-63
2024/04/14 05:47:54;;;;;;;11.60;1.83;;;12.50;99.90;;;;;;5417618;26;20394;-63
2024/04/14 05:50:21;;;;;;;6.75;1.40;;;12.50;99.90;;;;;;5434144;26;20081;-63
2024/04/14 05:52:48;;;;;;;12.57;1.50;;;12.40;99.90;;;;;;5449971;26;20007;-63
2024/04/14 05:55:13;;;;;;;12.90;1.70;;;12.40;99.90;;;;;;5439192;26;20712;-63
2024/04/14 05:57:39;;;;;;;11.90;1.60;;;12.40;99.90;;;;;;5425739;26;20010;-63
2024/04/14 06:00:06;;;;;;;9.82;1.65;;;12.40;99.90;;;;;;5411723;26;20075;-63
2024/04/14 06:02:40;;;;;;;9.25;1.75;;;12.40;99.90;;;;;;5411145;26;20014;-63
2024/04/14 06:05:06;;;;;;;12.57;1.83;;;12.40;99.90;;;;;;5403021;26;20023;-63
2024/04/14 06:07:31;;;;;;;9.50;1.85;;;12.40;99.90;;;;;;5415195;26;20000;-63
2024/04/14 06:09:57;;;;;;;10.68;1.95;;;12.40;99.90;;;;;;5422850;26;20003;-63
2024/04/14 06:12:23;;;;;;;10.55;1.75;;;12.30;99.90;;;;;;5407041;26;20073;-63
2024/04/14 06:14:49;;;;;;;8.02;1.33;;;12.20;99.90;;;;;;5404889;26;20003;-62
2024/04/14 06:17:14;;;;;;;7.88;1.50;;;12.20;99.90;;;;;;5406847;26;20003;-63
2024/04/14 06:19:40;;;;;;;10.07;1.35;;;12.20;99.90;;;;;;5397094;26;20066;-63
2024/04/14 06:22:06;;;;;;;15.10;2.05;;;12.20;99.90;;;;;;5392023;26;20027;-63
2024/04/14 06:24:32;;;;;;;9.80;1.50;;;12.20;99.90;;;;;;5400350;26;19992;-63
2024/04/14 06:26:57;;;;;;;9.15;1.75;;;12.20;99.90;;;;;;5398799;26;20000;-63
2024/04/14 06:29:23;;;;;;;9.82;1.63;;;12.20;99.90;;;;;;5418246;26;20011;-63
2024/04/14 06:31:49;;;;;;;6.25;1.20;;;12.20;99.90;;;;;;5429553;26;20076;-63
2024/04/14 06:34:15;;;;;;;11.77;1.85;;;12.20;99.90;;;;;;5427881;26;20683;-63
2024/04/14 06:36:40;;;;;;;9.00;1.27;;;12.30;99.90;;;;;;5424023;26;20026;-63
2024/04/14 06:39:06;;;;;;;8.43;1.77;;;12.30;99.90;;;;;;5400594;26;20830;-62
2024/04/14 06:41:32;;;;;;;8.90;1.50;;;12.30;99.90;;;;;;5389190;26;20471;-63
2024/04/14 06:43:58;;;;;;;13.18;1.70;;;12.30;99.90;;;;;;5391431;26;20000;-63
2024/04/14 06:46:23;;;;;;;13.45;2.00;;;12.30;99.90;;;;;;5391905;26;20069;-63
2024/04/14 06:48:49;;;;;;;8.13;1.42;;;12.30;99.90;;;;;;5418326;26;20011;-63
2024/04/14 06:51:15;;;;;;;8.90;1.58;;;12.20;99.90;;;;;;5420015;26;20036;-63
2024/04/14 06:53:40;;;;;;;14.43;1.50;;;12.30;99.90;;;;;;5429136;26;20079;-63
2024/04/14 06:56:06;;;;;;;7.53;1.42;;;12.30;99.90;;;;;;5415535;26;20007;-63
2024/04/14 06:58:36;;;;;;;8.10;1.38;;;12.30;99.90;;;;;;5401741;26;20022;-62
2024/04/14 07:01:01;;;;;;;8.27;1.48;;;12.30;99.90;;;;;;5394213;26;20007;-63
2024/04/14 07:03:27;;;;;;;8.38;1.63;;;12.40;99.90;;;;;;5390504;26;20097;-63
2024/04/14 07:05:53;;;;;;;9.60;1.60;;;12.40;99.90;;;;;;5391784;26;20016;-62
2024/04/14 07:08:19;;;;;;;35.55;2.80;;;12.50;99.90;;;;;;5411442;26;20015;-63
2024/04/14 07:10:45;;;;;;;13.10;2.15;;;12.60;99.90;;;;;;5400061;26;19996;-63
2024/04/14 07:13:10;;;;;;;8.40;1.52;;;12.70;99.90;;;;;;5363928;26;20003;-62
2024/04/14 07:15:36;;;;;;;14.98;1.45;;;12.80;99.90;;;;;;5377333;26;20016;-63
2024/04/14 07:18:02;;;;;;;6.95;1.30;;;12.80;99.90;;;;;;5362430;26;20000;-63
2024/04/14 07:20:29;;;;;;;7.93;1.13;;;12.80;99.90;;;;;;5402906;26;20079;-63
2024/04/14 07:22:55;;;;;;;12.88;1.70;;;12.80;99.90;;;;;;5409700;26;20026;-64
2024/04/14 07:25:22;;;;;;;10.70;1.67;;;12.80;99.90;;;;;;5416303;26;19999;-64
2024/04/14 07:27:48;;;;;;;9.77;1.55;;;12.80;99.90;;;;;;5412757;26;20373;-65
2024/04/14 07:30:13;;;;;;;8.20;1.35;;;12.70;99.90;;;;;;5420358;26;20014;-64
2024/04/14 07:32:39;;;;;;;9.75;1.55;;;12.70;99.90;;;;;;5410686;26;20901;-64
2024/04/14 07:35:05;;;;;;;8.75;1.52;;;12.70;99.90;;;;;;5405474;26;20808;-64
2024/04/14 07:37:31;;;;;;;8.27;1.50;;;12.70;99.90;;;;;;5393921;26;20333;-65
2024/04/14 07:39:56;;;;;;;9.52;1.30;;;12.70;99.90;;;;;;5404329;26;20011;-65
2024/04/14 07:42:22;;;;;;;7.50;1.60;;;12.70;99.90;;;;;;5401857;26;20525;-64
2024/04/14 07:44:48;;;;;;;6.78;1.23;;;12.70;99.90;;;;;;5407912;26;20006;-65
2024/04/14 07:47:13;;;;;;;7.47;1.40;;;12.70;99.90;;;;;;5408304;26;20416;-64
2024/04/14 07:49:41;;;;;;;6.90;1.02;;;12.70;99.90;;;;;;5410754;26;19995;-63
2024/04/14 07:52:07;;;;;;;6.53;1.20;;;12.70;99.90;;;;;;5409243;26;20026;-63
2024/04/14 07:54:33;;;;;;;6.22;1.27;;;12.70;99.90;;;;;;5409417;26;20045;-63
2024/04/14 07:57:01;;;;;;;5.38;1.20;;;12.70;99.90;;;;;;5408601;26;20007;-63
2024/04/14 07:59:27;;;;;;;7.75;1.10;;;12.70;99.90;;;;;;5409555;26;19995;-63
2024/04/14 08:01:53;;;;;;;7.32;1.30;;;12.80;99.90;;;;;;5412050;26;19996;-63
2024/04/14 08:04:19;;;;;;;6.53;1.27;;;12.80;99.90;;;;;;5407332;26;20431;-63
2024/04/14 08:06:44;;;;;;;6.40;1.15;;;12.90;99.90;;;;;;5411454;26;20022;-63
2024/04/14 08:09:10;;;;;;;8.93;1.58;;;12.90;99.90;;;;;;5403842;26;20029;-63
2024/04/14 08:11:36;;;;;;;7.13;1.33;;;12.90;99.90;;;;;;5414856;26;20019;-63
2024/04/14 08:14:01;;;;;;;12.30;1.75;;;12.90;99.90;;;;;;5407442;26;20819;-63
2024/04/14 08:16:27;;;;;;;9.70;1.20;;;12.90;99.90;;;;;;5411413;26;20038;-63
2024/04/14 08:18:53;;;;;;;8.73;1.38;;;12.90;99.90;;;;;;5407779;26;20011;-63
2024/04/14 08:21:20;;;;;;;8.18;1.40;;;12.90;99.90;;;;;;5409429;26;20096;-63
2024/04/14 08:23:45;;;;;;;7.03;1.10;;;12.90;99.90;;;;;;5412968;26;19999;-63
2024/04/14 08:26:11;;;;;;;6.45;1.02;;;12.90;99.90;;;;;;5407757;26;19996;-63
2024/04/14 08:28:37;;;;;;;9.43;1.30;;;12.90;99.90;;;;;;5410359;26;20003;-63
2024/04/14 08:31:03;;;;;;;10.60;1.30;;;12.90;99.90;;;;;;5407670;26;20022;-63
2024/04/14 08:33:28;;;;;;;7.45;1.48;;;12.90;99.90;;;;;;5411873;26;19999;-63
2024/04/14 08:35:54;;;;;;;6.90;1.30;;;12.90;99.90;;;;;;5408685;26;20011;-63
2024/04/14 08:38:20;;;;;;;6.43;1.05;;;12.90;99.90;;;;;;5403136;26;20517;-63
2024/04/14 08:40:55;;;;;;;6.07;1.15;;;13.00;99.90;;;;;;5402256;26;20078;-63
2024/04/14 08:43:21;;;;;;;8.00;1.58;;;12.90;99.90;;;;;;5401286;26;20022;-63
2024/04/14 08:45:47;;;;;;;8.27;1.60;;;12.90;99.90;;;;;;5400412;26;20487;-63
2024/04/14 08:48:14;;;;;;;8.70;1.55;;;13.00;99.90;;;;;;5398885;26;20450;-63
2024/04/14 08:50:41;;;;;;;6.80;1.20;;;13.00;99.90;;;;;;5410480;26;20019;-63
2024/04/14 08:53:08;;;;;;;9.52;1.50;;;13.10;99.90;;;;;;5410054;26;19999;-63
2024/04/14 08:55:34;;;;;;;6.32;1.00;;;13.10;99.90;;;;;;5413265;26;20096;-63
2024/04/14 08:58:00;;;;;;;6.40;1.02;;;13.10;99.90;;;;;;5401362;26;20481;-63
2024/04/14 09:00:30;;;;;;;6.55;1.27;;;13.20;99.90;;;;;;5414234;26;20081;-64
2024/04/14 09:02:56;;;;;;;7.53;1.10;;;13.20;99.90;;;;;;5413470;26;20423;-63
2024/04/14 09:05:23;;;;;;;7.32;1.20;;;13.20;99.90;;;;;;5413248;26;20011;-63
2024/04/14 09:07:56;;;;;;;6.10;1.08;;;13.20;99.90;;;;;;5411423;26;20960;-63
2024/04/14 09:10:26;;;;;;;7.30;1.10;;;13.20;99.90;;;;;;5410008;26;20027;-63
2024/04/14 09:12:54;;;;;;;6.53;1.20;;;13.20;99.90;;;;;;5405113;26;20010;-63
2024/04/14 09:15:21;;;;;;;5.93;1.15;;;13.30;99.90;;;;;;5404744;26;20003;-63
2024/04/14 09:17:47;;;;;;;7.38;1.13;;;13.30;99.90;;;;;;5401333;26;20343;-63
2024/04/14 09:20:13;;;;;;;7.75;1.35;;;13.30;99.90;;;;;;5405763;26;20007;-63
2024/04/14 09:22:39;;;;;;;8.52;1.48;;;13.30;99.90;;;;;;5399963;26;20012;-63
2024/04/14 09:25:08;;;;;;;11.40;1.30;;;13.40;99.90;;;;;;5397298;26;20344;-63
2024/04/14 09:27:34;;;;;;;8.68;1.25;;;13.40;99.90;;;;;;5395422;26;20004;-62
2024/04/14 09:30:29;;;;;;;5.72;1.10;;;13.40;99.90;;;;;;5409307;26;20023;-63
2024/04/14 09:32:57;;;;;;;6.03;1.15;;;13.40;99.90;;;;;;5407949;26;20057;-63
2024/04/14 09:35:23;;;;;;;6.18;1.13;;;13.30;99.90;;;;;;5408861;26;20012;-63
2024/04/14 09:37:51;;;;;;;5.70;1.00;;;13.40;99.90;;;;;;5404892;26;19999;-63
2024/04/14 09:40:18;;;;;;;8.30;1.45;;;13.40;99.90;;;;;;5407491;26;20091;-63
2024/04/14 09:42:47;;;;;;;7.90;1.30;;;13.30;99.90;;;;;;5410504;26;20002;-63
2024/04/14 09:45:14;;;;;;;7.72;1.23;;;13.40;99.90;;;;;;5409952;26;20015;-63
2024/04/14 09:47:42;;;;;;;6.95;1.30;;;13.50;99.90;;;;;;5408149;26;20051;-64
2024/04/14 09:50:09;;;;;;;7.78;1.10;;;13.50;99.90;;;;;;5417289;26;20490;-64
2024/04/14 09:52:36;;;;;;;6.10;1.20;;;13.50;99.90;;;;;;5413217;26;19996;-64
2024/04/14 09:55:04;;;;;;;7.05;1.10;;;13.50;99.90;;;;;;5415640;26;20007;-63
2024/04/14 09:57:30;;;;;;;7.70;1.10;;;13.50;99.90;;;;;;5420520;26;19998;-63
2024/04/14 09:59:56;;;;;;;7.13;1.15;;;13.50;99.90;;;;;;5410397;26;20007;-64
2024/04/14 10:02:40;;;;;;;8.73;1.10;;;13.50;99.90;;;;;;5413343;26;20015;-63
2024/04/14 10:05:09;;;;;;;4.90;1.00;;;13.60;99.90;;;;;;5411570;26;20015;-64
2024/04/14 10:07:38;;;;;;;6.15;1.05;;;13.60;99.90;;;;;;5407690;26;20003;-63
2024/04/14 10:10:07;;;;;;;7.70;1.30;;;13.60;99.90;;;;;;5403749;26;20448;-64
2024/04/14 10:12:34;;;;;;;8.82;1.20;;;13.70;99.90;;;;;;5403339;26;20074;-63
2024/04/14 10:15:04;;;;;;;7.25;1.10;;;13.70;99.90;;;;;;5402567;26;20127;-63
2024/04/14 10:17:30;;;;;;;9.40;1.02;;;13.70;99.90;;;;;;5396125;26;20003;-64
2024/04/14 10:19:57;;;;;;;5.88;1.15;;;13.80;99.90;;;;;;5410303;26;20478;-63
2024/04/14 10:22:36;;;;;;;7.75;1.40;;;13.80;99.90;;;;;;5420521;26;19999;-64
2024/04/14 10:25:03;;;;;;;4.40;1.33;;;13.90;99.90;;;;;;5406142;26;19999;-64
2024/04/14 10:27:35;;;;;;;8.63;1.10;;;13.90;99.90;;;;;;5414958;26;20015;-63
2024/04/14 10:30:03;;;;;;;6.47;1.20;;;13.90;99.90;;;;;;5412903;26;20007;-64
2024/04/14 10:32:30;;;;;;;5.68;1.05;;;14.00;99.90;;;;;;5413172;26;20553;-64
2024/04/14 10:34:56;;;;;;;7.57;1.40;;;14.00;99.90;;;;;;5417302;26;20031;-64
2024/04/14 10:37:26;;;;;;;5.47;1.05;;;14.10;99.90;;;;;;5413455;26;19991;-64
2024/04/14 10:39:53;;;;;;;3.88;1.00;;;14.10;99.90;;;;;;5407780;26;20014;-64
2024/04/14 10:42:20;;;;;;;6.53;1.30;;;14.10;99.90;;;;;;5402086;26;20010;-64
2024/04/14 10:44:46;;;;;;;8.57;1.25;;;14.20;99.90;;;;;;5397534;26;20359;-64
2024/04/14 10:47:19;;;;;;;4.50;1.00;;;14.20;99.90;;;;;;5393219;26;20004;-64
2024/04/14 10:49:48;;;;;;;4.82;1.00;;;14.10;99.90;;;;;;5384278;26;20913;-63
2024/04/14 10:52:15;;;;;;;5.75;0.90;;;14.20;99.90;;;;;;5385529;26;20157;-64
2024/04/14 10:54:41;;;;;;;5.30;1.00;;;14.20;99.90;;;;;;5392515;26;19999;-64
2024/04/14 10:57:09;;;;;;;8.35;1.30;;;14.20;99.90;;;;;;5393653;26;20018;-64
2024/04/14 10:59:35;;;;;;;7.95;1.10;;;14.20;99.90;;;;;;5427196;26;20086;-64
2024/04/14 11:02:02;;;;;;;7.53;1.00;;;14.20;99.90;;;;;;5413587;26;20019;-64
2024/04/14 11:04:28;;;;;;;4.53;0.93;;;14.20;99.90;;;;;;5409184;26;20011;-64
2024/04/14 11:06:55;;;;;;;5.78;1.30;;;14.10;99.90;;;;;;5404932;26;20120;-64
2024/04/14 11:09:23;;;;;;;4.63;1.20;;;14.10;99.90;;;;;;5407515;26;20740;-64
2024/04/14 11:11:50;;;;;;;7.57;1.20;;;14.10;99.90;;;;;;5408630;26;20011;-64
2024/04/14 11:14:20;;;;;;;8.52;1.10;;;14.10;99.90;;;;;;5407802;26;20080;-64
2024/04/14 11:16:49;;;;;;;6.38;0.90;;;14.20;99.90;;;;;;5399187;26;19999;-64
2024/04/14 11:19:15;;;;;;;8.05;0.95;;;14.20;99.90;;;;;;5405153;26;20011;-65
2024/04/14 11:21:45;;;;;;;3.15;0.80;;;14.20;99.90;;;;;;5396397;26;20002;-65
2024/04/14 11:24:12;;;;;;;4.88;0.80;;;14.20;99.90;;;;;;5406012;26;20003;-65
2024/04/14 11:26:42;;;;;;;6.10;0.90;;;14.20;99.90;;;;;;5416937;26;19991;-65
2024/04/14 11:29:08;;;;;;;5.38;1.02;;;14.20;99.90;;;;;;5413713;26;19999;-65
2024/04/14 11:31:35;;;;;;;6.18;1.10;;;14.20;99.90;;;;;;5410094;26;20033;-65
2024/04/14 11:34:01;;;;;;;6.00;1.10;;;14.30;99.90;;;;;;5414214;26;20027;-65
2024/04/14 11:36:34;;;;;;;5.00;1.00;;;14.30;99.90;;;;;;5402979;26;20010;-65
2024/04/14 11:39:03;;;;;;;5.60;1.00;;;14.30;99.90;;;;;;5406133;26;19999;-65
2024/04/14 11:41:29;;;;;;;9.15;1.13;;;14.30;99.90;;;;;;5406403;26;20452;-65
2024/04/14 11:43:56;;;;;;;5.47;1.00;;;14.40;99.90;;;;;;5417389;26;19995;-65
2024/04/14 11:46:21;;;;;;;7.53;1.02;;;14.40;99.90;;;;;;5414062;26;20534;-65
2024/04/14 11:48:47;;;;;;;8.35;1.40;;;14.50;99.90;;;;;;5399690;26;20055;-65
2024/04/14 11:51:13;;;;;;;6.30;0.98;;;14.50;99.90;;;;;;5387898;26;20033;-65
2024/04/14 11:53:39;;;;;;;5.57;1.27;;;14.50;99.90;;;;;;5400892;26;20006;-65
2024/04/14 11:56:05;;;;;;;5.90;1.08;;;14.50;99.90;;;;;;5392864;26;20472;-65
2024/04/14 11:58:31;;;;;;;7.30;1.10;;;14.60;99.90;;;;;;5414483;26;20003;-65
2024/04/14 12:00:57;;;;;;;7.57;1.10;;;14.60;99.90;;;;;;5418586;26;20035;-65
2024/04/14 12:03:23;;;;;;;6.90;1.15;;;14.60;99.90;;;;;;5400884;26;19995;-65
2024/04/14 12:05:50;;;;;;;6.10;1.17;;;14.60;99.90;;;;;;5394540;26;20069;-65
2024/04/14 12:08:16;;;;;;;5.93;1.30;;;14.60;99.90;;;;;;5400849;26;20007;-65
2024/04/14 12:10:42;;;;;;;5.70;1.27;;;14.70;99.90;;;;;;5408334;26;20515;-65
2024/04/14 12:13:10;;;;;;;3.83;1.05;;;14.70;99.90;;;;;;5410221;26;20480;-65
2024/04/14 12:15:36;;;;;;;5.82;1.17;;;14.80;99.90;;;;;;5409727;26;19999;-65
2024/04/14 12:18:02;;;;;;;5.63;1.00;;;14.80;99.90;;;;;;5411881;26;20475;-65
2024/04/14 12:20:29;;;;;;;4.72;1.10;;;14.90;99.90;;;;;;5409223;26;20046;-65
2024/04/14 12:22:55;;;;;;;5.32;0.80;;;14.80;99.90;;;;;;5402826;26;20000;-65
2024/04/14 12:25:21;;;;;;;4.47;1.05;;;14.80;99.90;;;;;;5407306;26;20345;-65
2024/04/14 12:27:47;;;;;;;5.97;1.10;;;14.80;99.90;;;;;;5442216;26;20150;-64
2024/04/14 12:30:14;;;;;;;4.93;1.02;;;14.90;99.90;;;;;;5414419;26;20831;-64
2024/04/14 12:32:41;;;;;;;6.18;1.17;;;14.90;99.90;;;;;;5411911;26;20092;-64
2024/04/14 12:35:10;;;;;;;8.95;1.00;;;14.90;99.90;;;;;;5409717;26;20039;-63
2024/04/14 12:37:36;;;;;;;3.25;0.85;;;15.00;99.90;;;;;;5411825;26;20004;-63
2024/04/14 12:40:03;;;;;;;6.28;1.00;;;15.00;99.90;;;;;;5402993;26;21037;-64
2024/04/14 12:42:28;;;;;;;10.18;1.35;;;15.00;99.90;;;;;;5406856;26;20463;-64